Time;durP1;ratioP1;P1;durP2;ratioP2;P2;SDS_P1;SDS_P2;PMS_P1;PMS_P2;Temp;Humidity;BMP_temperature;BMP_pressure;BME280_temperature;BME280_humidity;BME280_pressure;Samples;Min_cycle;Max_cycle;Signal;HPM_P1;HPM_P2
2023/12/13 00:00:51;;;;;;;43.95;39.35;;;;;;;;;;5086029;28;20043;-69
2023/12/13 00:03:17;;;;;;;41.17;37.08;;;;;;;;;;5086252;28;20047;-70
2023/12/13 00:05:43;;;;;;;38.60;34.80;;;;;;;;;;5093553;28;20439;-69
2023/12/13 00:08:09;;;;;;;39.20;33.65;;;;;;;;;;5093400;28;20101;-69
2023/12/13 00:10:36;;;;;;;35.25;31.67;;;;;;;;;;5102855;28;20040;-69
2023/12/13 00:13:03;;;;;;;34.42;31.08;;;;;;;;;;5110201;28;20138;-69
2023/12/13 00:15:29;;;;;;;32.47;29.08;;;;;;;;;;5095716;28;20074;-69
2023/12/13 00:17:56;;;;;;;30.30;27.17;;;;;;;;;;5114018;28;20386;-69
2023/12/13 00:20:22;;;;;;;28.90;25.90;;;;;;;;;;5094568;28;20472;-69
2023/12/13 00:22:48;;;;;;;30.20;27.00;;;;;;;;;;5111193;28;20403;-69
2023/12/13 00:25:14;;;;;;;25.88;23.08;;;;;;;;;;5077738;28;20031;-69
2023/12/13 00:27:40;;;;;;;25.42;22.83;;;;;;;;;;5078738;28;20478;-69
2023/12/13 00:30:07;;;;;;;23.40;20.90;;;;;;;;;;5080905;28;20047;-69
2023/12/13 00:32:34;;;;;;;23.13;20.70;;;;;;;;;;5102586;27;20447;-67
2023/12/13 00:35:00;;;;;;;21.75;19.48;;;;;;;;;;5063634;28;20134;-67
2023/12/13 00:37:26;;;;;;;22.65;20.23;;;;;;;;;;5092520;28;20067;-67
2023/12/13 00:39:52;;;;;;;22.20;19.25;;;17.20;89.70;;;;;;5074310;28;20052;-68
2023/12/13 00:42:18;;;;;;;20.52;18.20;;;;;;;;;;5058890;28;20036;-67
2023/12/13 00:44:44;;;;;;;18.98;17.00;;;17.30;89.80;;;;;;5074874;28;20127;-69
2023/12/13 00:47:10;;;;;;;19.92;17.83;;;;;;;;;;5053432;28;20122;-67
2023/12/13 00:49:36;;;;;;;18.27;16.35;;;;;;;;;;5093127;28;20039;-69
2023/12/13 00:52:02;;;;;;;19.27;16.75;;;17.20;89.60;;;;;;5088619;28;20434;-69
2023/12/13 00:54:28;;;;;;;17.75;15.85;;;17.00;89.70;;;;;;5061196;28;20051;-68
2023/12/13 00:56:54;;;;;;;17.73;15.45;;;;;;;;;;5080941;28;20036;-68
2023/12/13 00:59:20;;;;;;;17.17;14.93;;;;;;;;;;5064401;28;20119;-67
2023/12/13 01:01:46;;;;;;;16.00;14.35;;;16.90;89.80;;;;;;5100205;27;20048;-68
2023/12/13 01:04:12;;;;;;;16.65;14.68;;;;;;;;;;5081112;28;20131;-69
2023/12/13 01:06:38;;;;;;;16.50;13.75;;;16.90;90.00;;;;;;5092790;28;20059;-69
2023/12/13 01:09:04;;;;;;;15.32;13.55;;;17.00;88.20;;;;;;5085827;28;20354;-69
2023/12/13 01:11:30;;;;;;;15.60;13.30;;;16.90;89.90;;;;;;5093058;28;20127;-68
2023/12/13 01:13:56;;;;;;;14.77;13.27;;;16.90;89.90;;;;;;5092676;28;20032;-69
2023/12/13 01:16:22;;;;;;;14.52;13.02;;;;;;;;;;5093514;28;20487;-69
2023/12/13 01:18:48;;;;;;;14.15;12.07;;;;;;;;;;5078951;28;20079;-69
2023/12/13 01:21:14;;;;;;;14.38;11.95;;;;;;;;;;5076605;28;20051;-69
2023/12/13 01:23:40;;;;;;;13.05;11.65;;;;;;;;;;5095140;28;20048;-69
2023/12/13 01:26:06;;;;;;;14.13;11.85;;;;;;;;;;5099129;28;20055;-68
2023/12/13 01:28:32;;;;;;;12.48;10.98;;;;;;;;;;5074329;28;20059;-69
2023/12/13 01:30:59;;;;;;;12.93;11.32;;;;;;;;;;5078121;28;20172;-69
2023/12/13 01:33:25;;;;;;;12.93;11.02;;;;;;;;;;5099512;28;20036;-67
2023/12/13 01:35:51;;;;;;;11.45;9.88;;;;;;;;;;5076267;28;20040;-68
2023/12/13 01:38:17;;;;;;;12.95;10.75;;;;;;;;;;5078871;28;20134;-68
2023/12/13 01:40:50;;;;;;;13.48;10.73;;;16.70;86.60;;;;;;5092406;28;20051;-68
2023/12/13 01:43:16;;;;;;;;;;;;;;;;;;5086757;28;20124;-69
2023/12/13 01:45:42;;;;;;;11.13;9.82;;;;;;;;;;5107228;28;20414;-68
2023/12/13 01:48:08;;;;;;;11.40;9.70;;;;;;;;;;5098730;28;20504;-69
2023/12/13 01:50:34;;;;;;;12.85;10.25;;;;;;;;;;5105780;28;20097;-69
2023/12/13 01:53:00;;;;;;;11.50;9.90;;;;;;;;;;5078921;28;20036;-69
2023/12/13 01:55:27;;;;;;;11.38;9.82;;;;;;;;;;5107863;28;20039;-69
2023/12/13 01:57:52;;;;;;;10.68;9.35;;;17.10;89.80;;;;;;5075734;28;20059;-69
2023/12/13 02:00:19;;;;;;;10.80;9.25;;;;;;;;;;5077327;28;20458;-68
2023/12/13 02:02:46;;;;;;;11.45;9.35;;;17.10;87.10;;;;;;5064503;28;20057;-70
2023/12/13 02:05:12;;;;;;;11.23;9.02;;;;;;;;;;5090432;28;20069;-69
2023/12/13 02:07:38;;;;;;;11.57;9.25;;;;;;;;;;5094287;28;20436;-69
2023/12/13 02:10:06;;;;;;;11.98;9.80;;;;;;;;;;5089637;28;20043;-69
2023/12/13 02:12:32;;;;;;;11.05;8.90;;;;;;;;;;5070559;28;20055;-68
2023/12/13 02:14:58;;;;;;;10.02;8.85;;;;;;;;;;5060508;28;20097;-69
2023/12/13 02:17:24;;;;;;;11.48;8.70;;;;;;;;;;5076740;28;20382;-69
2023/12/13 02:19:51;;;;;;;10.70;8.85;;;;;;;;;;5078241;28;20052;-68
2023/12/13 02:22:17;;;;;;;9.90;8.50;;;;;;;;;;5111431;28;20054;-69
2023/12/13 02:24:43;;;;;;;11.00;9.23;;;;;;;;;;5088517;28;20405;-68
2023/12/13 02:27:09;;;;;;;10.32;8.75;;;;;;;;;;5099130;28;20042;-68
2023/12/13 02:29:35;;;;;;;10.45;8.80;;;;;;;;;;5066021;28;20117;-69
2023/12/13 02:32:02;;;;;;;10.32;8.32;;;;;;;;;;5071694;28;20052;-70
2023/12/13 02:34:28;;;;;;;12.15;8.77;;;;;;;;;;5059123;28;20040;-69
2023/12/13 02:36:54;;;;;;;10.40;8.93;;;;;;;;;;5064238;28;20048;-69
2023/12/13 02:39:20;;;;;;;10.15;8.38;;;;;;;;;;5077226;28;20040;-69
2023/12/13 02:41:46;;;;;;;8.93;8.00;;;;;;;;;;5082866;28;20054;-69
2023/12/13 02:44:12;;;;;;;9.95;8.52;;;;;;;;;;5062264;28;20054;-69
2023/12/13 02:46:38;;;;;;;11.57;8.90;;;;;;;;;;5096026;28;20066;-69
2023/12/13 02:49:05;;;;;;;9.80;7.65;;;;;;;;;;5083953;28;20068;-69
2023/12/13 02:51:31;;;;;;;8.93;7.38;;;;;;;;;;5077178;28;20464;-69
2023/12/13 02:53:57;;;;;;;10.32;8.07;;;;;;;;;;5094088;28;20048;-69
2023/12/13 02:56:23;;;;;;;9.45;7.68;;;;;;;;;;5084555;28;20051;-69
2023/12/13 02:58:49;;;;;;;11.02;8.07;;;;;;;;;;5095902;28;20044;-68
2023/12/13 03:01:15;;;;;;;9.88;8.13;;;16.80;90.10;;;;;;5088891;28;20052;-69
2023/12/13 03:03:41;;;;;;;10.05;8.18;;;;;;;;;;5068034;28;20379;-69
2023/12/13 03:06:08;;;;;;;9.15;7.90;;;17.00;87.70;;;;;;5107913;28;20500;-69
2023/12/13 03:08:36;;;;;;;9.35;8.10;;;;;;;;;;5095049;28;20044;-68
2023/12/13 03:11:02;;;;;;;9.55;8.55;;;16.90;90.10;;;;;;5084781;28;20402;-69
2023/12/13 03:13:28;;;;;;;9.13;7.97;;;;;;;;;;5077015;28;20040;-68
2023/12/13 03:15:54;;;;;;;11.18;8.23;;;;;;;;;;5114931;28;20044;-69
2023/12/13 03:18:20;;;;;;;10.13;8.70;;;;;;;;;;5109318;28;20051;-69
2023/12/13 03:20:47;;;;;;;9.88;8.10;;;;;;;;;;5076184;28;20174;-70
2023/12/13 03:23:13;;;;;;;10.10;8.48;;;;;;;;;;5070495;28;20047;-69
2023/12/13 03:25:40;;;;;;;9.38;8.02;;;;;;;;;;5095469;28;20601;-70
2023/12/13 03:28:06;;;;;;;10.68;9.00;;;;;;;;;;5083289;28;20043;-70
2023/12/13 03:30:32;;;;;;;11.10;8.50;;;;;;;;;;5111329;28;20056;-69
2023/12/13 03:32:58;;;;;;;11.13;8.68;;;;;;;;;;5111433;28;20562;-68
2023/12/13 03:35:24;;;;;;;10.20;8.77;;;;;;;;;;5090973;28;20075;-69
2023/12/13 03:37:50;;;;;;;11.77;8.77;;;;;;;;;;5078175;28;20079;-69
2023/12/13 03:40:16;;;;;;;11.98;8.57;;;;;;;;;;5104811;28;20050;-69
2023/12/13 03:42:43;;;;;;;9.48;7.90;;;;;;;;;;5088872;28;20048;-69
2023/12/13 03:45:09;;;;;;;10.23;7.57;;;;;;;;;;5077267;28;20101;-69
2023/12/13 03:47:35;;;;;;;10.57;8.02;;;16.50;90.40;;;;;;5078153;27;20093;-69
2023/12/13 03:50:01;;;;;;;9.25;8.25;;;;;;;;;;5079221;28;20401;-69
2023/12/13 03:52:27;;;;;;;9.63;8.35;;;;;;;;;;5095356;28;20044;-69
2023/12/13 03:54:53;;;;;;;11.45;8.50;;;;;;;;;;5088004;28;20043;-68
2023/12/13 03:57:19;;;;;;;9.50;8.25;;;;;;;;;;5064663;28;20052;-68
2023/12/13 03:59:45;;;;;;;8.88;7.78;;;;;;;;;;5075526;28;20040;-69
2023/12/13 04:02:11;;;;;;;9.35;8.07;;;;;;;;;;5105241;28;20044;-69
2023/12/13 04:04:38;;;;;;;9.73;8.30;;;;;;;;;;5075714;28;20591;-69
2023/12/13 04:07:05;;;;;;;10.38;8.50;;;;;;;;;;5084250;28;20042;-69
2023/12/13 04:09:32;;;;;;;10.48;8.25;;;;;;;;;;5089020;28;20060;-69
2023/12/13 04:11:58;;;;;;;10.27;8.50;;;16.40;88.40;;;;;;5082285;28;20101;-69
2023/12/13 04:14:24;;;;;;;10.38;8.27;;;;;;;;;;5053029;28;20039;-69
2023/12/13 04:16:50;;;;;;;11.23;8.65;;;;;;;;;;5078650;28;20401;-69
2023/12/13 04:19:16;;;;;;;11.27;8.57;;;;;;;;;;5095635;28;20075;-69
2023/12/13 04:21:42;;;;;;;10.35;8.90;;;;;;;;;;5109552;28;20039;-69
2023/12/13 04:24:08;;;;;;;9.85;8.73;;;;;;;;;;5093178;28;20477;-69
2023/12/13 04:26:34;;;;;;;12.02;9.02;;;;;;;;;;5102420;28;20064;-69
2023/12/13 04:29:01;;;;;;;11.95;8.98;;;;;;;;;;5066237;28;20050;-69
2023/12/13 04:31:27;;;;;;;9.43;8.40;;;;;;;;;;5078952;28;20089;-68
2023/12/13 04:33:53;;;;;;;10.45;8.85;;;;;;;;;;5076662;28;20131;-69
2023/12/13 04:36:19;;;;;;;11.15;8.90;;;;;;;;;;5061796;28;20035;-69
2023/12/13 04:38:45;;;;;;;9.82;8.60;;;;;;;;;;5106637;28;20394;-68
2023/12/13 04:41:12;;;;;;;11.35;8.63;;;;;;;;;;5074999;28;20044;-69
2023/12/13 04:43:38;;;;;;;10.52;8.27;;;;;;;;;;5058239;28;22136;-68
2023/12/13 04:46:04;;;;;;;9.18;8.05;;;;;;;;;;5058379;28;20394;-69
2023/12/13 04:48:30;;;;;;;10.32;8.20;;;;;;;;;;5074437;28;20611;-68
2023/12/13 04:50:57;;;;;;;9.43;7.97;;;;;;;;;;5077215;28;20059;-68
2023/12/13 04:53:23;;;;;;;9.52;8.13;;;;;;;;;;5065734;28;20039;-69
2023/12/13 04:55:49;;;;;;;9.88;8.13;;;;;;;;;;5078346;27;20438;-69
2023/12/13 04:58:15;;;;;;;10.55;8.65;;;;;;;;;;5092766;28;20096;-68
2023/12/13 05:00:42;;;;;;;10.73;8.82;;;;;;;;;;5098385;28;20600;-68
2023/12/13 05:03:08;;;;;;;10.15;8.10;;;;;;;;;;5092869;28;20044;-68
2023/12/13 05:05:34;;;;;;;9.70;7.95;;;;;;;;;;5093103;28;20153;-69
2023/12/13 05:08:00;;;;;;;10.00;8.57;;;;;;;;;;5080026;28;20126;-69
2023/12/13 05:10:27;;;;;;;9.80;8.32;;;;;;;;;;5078543;28;20090;-69
2023/12/13 05:12:53;;;;;;;10.32;8.02;;;;;;;;;;5065794;28;20040;-69
2023/12/13 05:15:19;;;;;;;11.55;8.63;;;;;;;;;;5080894;28;20131;-67
2023/12/13 05:17:45;;;;;;;12.18;8.80;;;;;;;;;;5075105;28;20056;-70
2023/12/13 05:20:11;;;;;;;10.18;8.18;;;;;;;;;;5057690;28;20085;-69
2023/12/13 05:22:37;;;;;;;9.80;8.05;;;;;;;;;;5082391;28;20113;-69
2023/12/13 05:25:03;;;;;;;9.65;8.13;;;15.90;91.00;;;;;;5092145;28;20073;-70
2023/12/13 05:27:30;;;;;;;10.13;7.93;;;;;;;;;;5058289;28;20044;-69
2023/12/13 05:29:56;;;;;;;10.40;8.18;;;;;;;;;;5089910;28;20047;-71
2023/12/13 05:35:41;;;;;;;9.98;8.23;;;15.80;91.00;;;;;;5100911;28;20079;-69
2023/12/13 05:38:07;;;;;;;10.07;8.10;;;;;;;;;;5062740;28;20088;-69
2023/12/13 05:40:33;;;;;;;10.23;8.55;;;;;;;;;;5073986;28;20048;-68
2023/12/13 05:43:00;;;;;;;10.23;8.48;;;15.50;89.90;;;;;;5077949;28;20043;-70
2023/12/13 05:45:26;;;;;;;10.85;8.02;;;;;;;;;;5070879;28;20036;-67
2023/12/13 05:47:53;;;;;;;9.73;8.07;;;;;;;;;;5077013;28;20047;-69
2023/12/13 05:50:19;;;;;;;10.90;8.38;;;;;;;;;;5096997;28;20046;-69
2023/12/13 05:52:45;;;;;;;9.23;8.05;;;15.80;91.40;;;;;;5088957;28;20429;-68
2023/12/13 05:55:13;;;;;;;9.90;8.35;;;15.70;91.40;;;;;;5081856;28;20115;-69
2023/12/13 05:57:39;;;;;;;10.55;8.23;;;;;;;;;;5096016;28;20580;-68
2023/12/13 06:00:07;;;;;;;9.98;7.88;;;15.80;91.00;;;;;;5108406;27;20046;-67
2023/12/13 06:02:36;;;;;;;10.70;8.00;;;15.70;90.30;;;;;;5089849;28;20036;-69
2023/12/13 06:05:03;;;;;;;10.25;8.38;;;;;;;;;;5098022;28;20126;-68
2023/12/13 06:07:29;;;;;;;10.00;7.93;;;;;;;;;;5096441;28;20415;-68
2023/12/13 06:09:56;;;;;;;9.18;7.90;;;;;;;;;;5111222;27;20047;-69
2023/12/13 06:12:22;;;;;;;10.07;8.50;;;15.60;91.40;;;;;;5109881;28;20052;-68
2023/12/13 06:14:48;;;;;;;9.00;7.60;;;;;;;;;;5105913;28;20032;-69
2023/12/13 06:17:14;;;;;;;9.00;7.82;;;;;;;;;;5099948;28;20043;-69
2023/12/13 06:19:41;;;;;;;9.95;8.40;;;;;;;;;;5093586;28;20055;-69
2023/12/13 06:22:07;;;;;;;9.77;8.18;;;;;;;;;;5077187;28;20050;-69
2023/12/13 06:24:33;;;;;;;9.40;7.68;;;;;;;;;;5097432;28;20036;-67
2023/12/13 06:26:59;;;;;;;11.27;8.38;;;15.50;91.20;;;;;;5085473;28;20036;-66
2023/12/13 06:29:25;;;;;;;8.98;8.05;;;15.30;89.90;;;;;;5077209;28;20422;-66
2023/12/13 06:31:51;;;;;;;8.98;7.72;;;15.60;90.90;;;;;;5087397;28;20398;-66
2023/12/13 06:34:18;;;;;;;10.10;7.90;;;;;;;;;;5093701;28;20040;-67
2023/12/13 06:36:43;;;;;;;9.15;6.93;;;15.50;90.30;;;;;;5095965;28;20044;-69
2023/12/13 06:39:11;;;;;;;9.70;7.35;;;15.50;90.80;;;;;;5104414;28;20397;-69
2023/12/13 06:41:40;;;;;;;9.10;7.43;;;;;;;;;;5087627;28;20035;-69
2023/12/13 06:44:07;;;;;;;9.85;8.13;;;;;;;;;;5066967;28;20044;-69
2023/12/13 06:46:33;;;;;;;10.35;7.80;;;;;;;;;;5066776;28;20040;-68
2023/12/13 06:48:59;;;;;;;8.82;7.22;;;15.60;91.70;;;;;;5059030;28;20063;-70
2023/12/13 06:51:25;;;;;;;10.18;7.88;;;15.70;90.70;;;;;;5068257;28;20047;-69
2023/12/13 06:53:50;;;;;;;9.05;7.32;;;15.60;91.70;;;;;;5082003;28;20035;-69
2023/12/13 06:56:17;;;;;;;9.60;7.65;;;;;;;;;;5105033;28;20481;-69
2023/12/13 06:58:43;;;;;;;8.80;7.32;;;;;;;;;;5073865;28;20076;-68
2023/12/13 07:01:10;;;;;;;9.27;7.85;;;;;;;;;;5089034;28;20397;-69
2023/12/13 07:03:36;;;;;;;9.23;7.35;;;;;;;;;;5078775;28;20077;-69
2023/12/13 07:06:02;;;;;;;8.70;7.47;;;15.40;90.20;;;;;;5073323;28;20040;-69
2023/12/13 07:08:28;;;;;;;9.30;7.50;;;;;;;;;;5062874;28;20052;-68
2023/12/13 07:10:54;;;;;;;8.98;7.35;;;15.40;91.00;;;;;;5075354;28;20406;-69
2023/12/13 07:13:20;;;;;;;8.82;7.38;;;;;;;;;;5087151;28;20084;-69
2023/12/13 07:15:47;;;;;;;17.92;8.13;;;;;;;;;;5091115;27;20115;-70
2023/12/13 07:18:13;;;;;;;89.85;77.20;;;;;;;;;;5105205;28;20040;-71
2023/12/13 07:20:39;;;;;;;142.45;102.57;;;15.60;91.90;;;;;;5058261;28;20629;-69
2023/12/13 07:23:05;;;;;;;257.08;144.55;;;;;;;;;;5060839;28;20040;-69
2023/12/13 07:25:31;;;;;;;201.95;108.88;;;;;;;;;;5054876;28;20055;-69
2023/12/13 07:27:58;;;;;;;239.00;162.35;;;;;;;;;;5071781;28;20040;-69
2023/12/13 07:30:23;;;;;;;241.07;203.73;;;15.80;92.10;;;;;;5071633;28;20044;-69
2023/12/13 07:32:50;;;;;;;200.77;152.85;;;15.70;92.00;;;;;;5099787;28;20040;-69
2023/12/13 07:35:18;;;;;;;193.55;151.20;;;;;;;;;;5066222;28;20565;-69
2023/12/13 07:37:44;;;;;;;186.27;143.05;;;;;;;;;;5095085;28;20434;-67
2023/12/13 07:40:11;;;;;;;170.63;136.73;;;;;;;;;;5091442;28;20044;-68
2023/12/13 07:42:37;;;;;;;165.90;127.22;;;;;;;;;;5109359;27;20556;-68
2023/12/13 07:45:03;;;;;;;148.30;121.72;;;;;;;;;;5090459;28;20062;-68
2023/12/13 07:47:29;;;;;;;141.70;115.45;;;;;;;;;;5093741;28;20047;-69
2023/12/13 07:49:55;;;;;;;133.35;110.70;;;16.40;91.60;;;;;;5076274;28;20374;-70
2023/12/13 07:52:21;;;;;;;117.28;104.45;;;;;;;;;;5061967;28;20059;-69
2023/12/13 07:54:48;;;;;;;109.72;98.05;;;;;;;;;;5077093;28;20087;-67
2023/12/13 07:57:15;;;;;;;103.93;92.15;;;;;;;;;;5095182;28;20043;-68
2023/12/13 07:59:41;;;;;;;108.35;96.60;;;;;;;;;;5110496;28;20051;-68
2023/12/13 08:02:07;;;;;;;99.28;89.35;;;;;;;;;;5095120;28;20047;-68
2023/12/13 08:04:34;;;;;;;97.38;84.57;;;;;;;;;;5073735;28;20048;-67
2023/12/13 08:07:00;;;;;;;95.18;84.53;;;;;;;;;;5093228;27;20031;-69
2023/12/13 08:09:26;;;;;;;161.60;146.27;;;;;;;;;;5078605;28;20134;-69
2023/12/13 08:11:52;;;;;;;136.55;123.10;;;17.10;89.70;;;;;;5086669;28;20078;-71
2023/12/13 08:14:18;;;;;;;124.53;112.68;;;;;;;;;;5092835;28;20521;-71
2023/12/13 08:16:44;;;;;;;123.35;111.10;;;17.40;90.90;;;;;;5103851;28;20177;-69
2023/12/13 08:19:10;;;;;;;119.97;108.47;;;;;;;;;;5083477;28;20076;-70
2023/12/13 08:21:40;;;;;;;110.65;100.10;;;;;;;;;;5087855;28;20044;-71
2023/12/13 08:24:10;;;;;;;106.70;97.03;;;17.70;87.80;;;;;;5074490;28;20048;-69
2023/12/13 08:26:36;;;;;;;100.45;91.32;;;;;;;;;;5086877;28;20051;-70
2023/12/13 08:29:03;;;;;;;94.65;86.07;;;;;;;;;;5074620;28;20190;-69
2023/12/13 08:31:30;;;;;;;86.72;78.45;;;;;;;;;;5110540;28;20047;-68
2023/12/13 08:33:56;;;;;;;80.00;72.78;;;;;;;;;;5089792;28;20051;-69
2023/12/13 08:36:22;;;;;;;78.68;71.88;;;;;;;;;;5071176;28;20043;-70
2023/12/13 08:38:48;;;;;;;73.95;67.15;;;;;;;;;;5086850;28;20493;-69
2023/12/13 08:41:15;;;;;;;69.82;63.65;;;;;;;;;;5108823;28;20058;-69
2023/12/13 08:43:41;;;;;;;65.70;59.60;;;;;;;;;;5090797;28;20294;-69
2023/12/13 08:46:07;;;;;;;61.15;55.65;;;;;;;;;;5073574;28;20112;-70
2023/12/13 08:48:34;;;;;;;60.35;55.05;;;;;;;;;;5089371;28;20119;-69
2023/12/13 08:51:00;;;;;;;59.97;53.65;;;17.60;90.00;;;;;;5075534;28;20063;-69
2023/12/13 08:53:26;;;;;;;133.05;122.22;;;;;;;;;;5058152;28;20140;-70
2023/12/13 08:55:52;;;;;;;97.40;89.30;;;;;;;;;;5091124;28;20051;-69
2023/12/13 08:58:18;;;;;;;85.20;78.53;;;;;;;;;;5086871;28;20056;-69
2023/12/13 09:00:44;;;;;;;80.38;74.07;;;;;;;;;;5106370;28;20031;-68
2023/12/13 09:03:11;;;;;;;78.68;71.95;;;;;;;;;;5090778;28;20134;-69
2023/12/13 09:05:37;;;;;;;76.57;70.18;;;;;;;;;;5072860;28;20505;-68
2023/12/13 09:08:06;;;;;;;72.07;65.97;;;;;;;;;;5105454;28;20410;-69
2023/12/13 09:10:34;;;;;;;66.47;60.83;;;18.40;87.40;;;;;;5073929;28;20430;-67
2023/12/13 09:13:03;;;;;;;62.15;56.78;;;18.10;85.90;;;;;;5073656;28;20560;-68
2023/12/13 09:15:29;;;;;;;59.63;54.58;;;;;;;;;;5051791;28;20040;-68
2023/12/13 09:17:56;;;;;;;55.20;50.67;;;;;;;;;;5089614;28;20044;-69
2023/12/13 09:20:22;;;;;;;52.75;48.15;;;;;;;;;;5074898;28;20051;-69
2023/12/13 09:22:48;;;;;;;50.85;46.55;;;;;;;;;;5090500;28;20174;-69
2023/12/13 09:25:17;;;;;;;48.45;44.47;;;18.10;86.00;;;;;;5090397;28;20055;-67
2023/12/13 09:27:43;;;;;;;44.15;40.55;;;18.00;86.80;;;;;;5073708;28;20051;-69
2023/12/13 09:30:11;;;;;;;42.92;39.17;;;;;;;;;;5040627;28;20054;-68
2023/12/13 09:32:38;;;;;;;41.47;38.08;;;;;;;;;;5056876;28;20059;-69
2023/12/13 09:35:04;;;;;;;39.13;35.78;;;17.90;89.20;;;;;;5057416;28;20560;-70
2023/12/13 09:37:30;;;;;;;37.65;34.45;;;;;;;;;;5058944;28;20406;-67
2023/12/13 09:39:57;;;;;;;35.80;32.90;;;;;;;;;;5091643;28;20028;-69
2023/12/13 09:42:23;;;;;;;34.10;31.23;;;;;;;;;;5074610;28;20510;-69
2023/12/13 09:44:49;;;;;;;33.13;30.17;;;;;;;;;;5073202;28;20051;-68
2023/12/13 09:47:16;;;;;;;31.52;28.73;;;;;;;;;;5058074;28;20039;-69
2023/12/13 09:49:42;;;;;;;30.80;28.10;;;;;;;;;;5073846;28;20096;-68
2023/12/13 09:52:09;;;;;;;29.45;26.88;;;;;;;;;;5088302;28;20055;-70
2023/12/13 09:54:37;;;;;;;27.75;25.27;;;18.00;89.50;;;;;;5074515;28;20408;-69
2023/12/13 09:57:04;;;;;;;27.23;24.92;;;17.70;89.40;;;;;;5090572;28;20054;-69
2023/12/13 09:59:30;;;;;;;26.00;23.60;;;;;;;;;;5058332;28;20051;-69
2023/12/13 10:01:57;;;;;;;24.80;22.60;;;;;;;;;;5109340;28;20415;-69
2023/12/13 10:04:27;;;;;;;28.83;21.92;;;17.70;86.90;;;;;;5088701;28;20043;-70
2023/12/13 10:06:54;;;;;;;25.70;22.65;;;;;;;;;;5074546;28;20039;-67
2023/12/13 10:09:20;;;;;;;34.50;27.88;;;;;;;;;;5086608;28;20047;-67
2023/12/13 10:11:46;;;;;;;28.42;23.52;;;;;;;;;;5073669;28;20063;-68
2023/12/13 10:14:13;;;;;;;34.17;23.60;;;;;;;;;;5088533;28;20035;-68
2023/12/13 10:16:39;;;;;;;49.15;23.23;;;;;;;;;;5078086;28;20135;-68
2023/12/13 10:19:08;;;;;;;39.00;22.15;;;17.80;87.70;;;;;;5102696;28;20043;-68
2023/12/13 10:21:35;;;;;;;41.00;21.55;;;;;;;;;;5106770;28;20036;-68
2023/12/13 10:24:01;;;;;;;47.70;21.15;;;17.80;88.70;;;;;;5083409;28;20063;-67
2023/12/13 10:26:27;;;;;;;51.00;21.70;;;;;;;;;;5088361;28;20109;-66
2023/12/13 10:28:54;;;;;;;46.47;21.15;;;;;;;;;;5104463;28;20036;-68
2023/12/13 10:31:25;;;;;;;56.05;33.88;;;;;;;;;;5094077;28;20066;-68
2023/12/13 10:33:51;;;;;;;62.53;29.55;;;;;;;;;;5070004;28;20051;-70
2023/12/13 10:36:18;;;;;;;67.55;28.52;;;17.60;87.30;;;;;;5089552;28;20082;-69
2023/12/13 10:38:48;;;;;;;61.78;29.83;;;17.70;87.70;;;;;;5060091;28;20455;-69
2023/12/13 10:41:15;;;;;;;87.28;52.25;;;;;;;;;;5063559;28;20126;-68
2023/12/13 10:43:41;;;;;;;90.68;41.50;;;;;;;;;;5070660;28;20085;-66
2023/12/13 10:46:08;;;;;;;77.20;43.45;;;;;;;;;;5076764;28;20043;-67
2023/12/13 10:48:37;;;;;;;80.97;45.15;;;18.10;87.70;;;;;;5076945;28;20040;-68
2023/12/13 10:51:03;;;;;;;76.35;41.90;;;18.00;90.10;;;;;;5057826;28;20087;-71
2023/12/13 10:53:32;;;;;;;71.82;38.38;;;;;;;;;;5075254;28;20426;-67
2023/12/13 10:55:58;;;;;;;76.00;37.85;;;;;;;;;;5076819;28;20089;-67
2023/12/13 10:58:24;;;;;;;61.10;35.80;;;17.90;89.80;;;;;;5076196;28;20047;-67
2023/12/13 11:00:51;;;;;;;61.83;32.75;;;;;;;;;;5075370;28;20129;-68
2023/12/13 11:03:19;;;;;;;60.25;32.28;;;;;;;;;;5076557;28;20130;-67
2023/12/13 11:05:46;;;;;;;50.72;30.00;;;;;;;;;;5079049;28;20070;-67
2023/12/13 11:08:22;;;;;;;52.45;28.83;;;;;;;;;;5092129;28;20172;-68
2023/12/13 11:11:02;;;;;;;49.17;28.15;;;;;;;;;;5104976;27;20055;-68
2023/12/13 11:13:29;;;;;;;54.45;28.02;;;;;;;;;;5109721;28;20047;-69
2023/12/13 11:15:55;;;;;;;35.70;23.60;;;18.10;89.90;;;;;;5076856;28;20054;-69
2023/12/13 11:18:24;;;;;;;39.67;21.95;;;;;;;;;;5083662;28;20052;-69
2023/12/13 11:20:55;;;;;;;38.33;20.95;;;17.90;87.40;;;;;;5093235;28;20047;-69
2023/12/13 11:23:27;;;;;;;36.67;21.13;;;;;;;;;;5094746;28;20098;-68
2023/12/13 11:25:56;;;;;;;28.55;18.58;;;17.90;85.60;;;;;;5103403;27;20081;-68
2023/12/13 11:28:22;;;;;;;34.33;17.90;;;;;;;;;;5076305;28;20035;-68
2023/12/13 11:30:48;;;;;;;23.13;16.58;;;;;;;;;;5111677;28;20477;-68
2023/12/13 11:33:20;;;;;;;34.58;17.05;;;17.60;86.00;;;;;;5090929;28;20138;-67
2023/12/13 11:35:46;;;;;;;70.85;52.17;;;17.80;89.70;;;;;;5107631;28;20075;-68
2023/12/13 11:38:13;;;;;;;80.68;56.78;;;17.80;89.60;;;;;;5075598;28;20063;-68
2023/12/13 11:40:42;;;;;;;56.47;42.53;;;18.00;85.90;;;;;;5109737;27;20055;-68
2023/12/13 11:43:08;;;;;;;55.72;38.78;;;;;;;;;;5090104;27;20121;-67
2023/12/13 11:45:34;;;;;;;50.55;37.28;;;;;;;;;;5074011;28;20516;-67
2023/12/13 11:48:01;;;;;;;39.50;32.72;;;18.10;89.20;;;;;;5094987;28;20039;-68
2023/12/13 11:50:27;;;;;;;36.47;32.50;;;;;;;;;;5110615;28;20481;-68
2023/12/13 11:52:54;;;;;;;37.40;30.15;;;;;;;;;;5110869;28;20126;-68
2023/12/13 11:55:20;;;;;;;41.13;29.63;;;;;;;;;;5090737;28;20040;-67
2023/12/13 11:57:50;;;;;;;31.48;25.45;;;;;;;;;;5110243;28;20040;-68
2023/12/13 12:00:19;;;;;;;31.27;25.42;;;;;;;;;;5111129;28;20065;-67
2023/12/13 12:02:45;;;;;;;32.83;24.80;;;18.10;88.80;;;;;;5110601;28;20043;-68
2023/12/13 12:05:15;;;;;;;24.17;20.48;;;;;;;;;;5067766;28;20202;-68
2023/12/13 12:07:41;;;;;;;23.88;19.20;;;;;;;;;;5072460;28;20058;-68
2023/12/13 12:10:08;;;;;;;22.42;18.98;;;;;;;;;;5079205;28;20047;-67
2023/12/13 12:12:36;;;;;;;23.23;17.33;;;;;;;;;;5101620;28;20047;-64
2023/12/13 12:15:06;;;;;;;21.38;16.15;;;;;;;;;;5084280;28;20453;-68
2023/12/13 12:17:31;;;;;;;17.92;15.18;;;17.80;87.90;;;;;;5099009;28;20051;-67
2023/12/13 12:19:59;;;;;;;17.42;14.80;;;17.80;88.60;;;;;;5096440;28;20538;-68
2023/12/13 12:22:26;;;;;;;17.77;12.77;;;;;;;;;;5107946;28;20118;-68
2023/12/13 12:24:53;;;;;;;14.57;12.50;;;;;;;;;;5110088;28;20210;-69
2023/12/13 12:27:24;;;;;;;15.80;12.00;;;17.90;86.60;;;;;;5066037;28;20051;-68
2023/12/13 12:29:50;;;;;;;14.38;10.57;;;;;;;;;;5079988;28;20114;-68
2023/12/13 12:32:17;;;;;;;12.15;9.90;;;;;;;;;;5084780;28;20552;-68
2023/12/13 12:34:47;;;;;;;13.30;9.98;;;17.90;86.80;;;;;;5099038;28;20035;-68
2023/12/13 12:37:14;;;;;;;11.00;8.82;;;17.70;89.00;;;;;;5094895;28;20043;-68
2023/12/13 12:39:41;;;;;;;9.90;8.63;;;;;;;;;;5057294;28;20056;-69
2023/12/13 12:42:07;;;;;;;12.05;8.00;;;17.70;89.00;;;;;;5105801;28;20074;-68
2023/12/13 12:44:33;;;;;;;10.02;7.70;;;17.60;86.40;;;;;;5106689;28;20068;-68
2023/12/13 12:46:59;;;;;;;9.43;7.35;;;;;;;;;;5096676;28;20043;-67
2023/12/13 12:49:25;;;;;;;9.27;7.25;;;;;;;;;;5110767;28;20037;-68
2023/12/13 12:51:51;;;;;;;8.02;6.70;;;;;;;;;;5091601;28;20047;-68
2023/12/13 12:54:18;;;;;;;12.38;6.65;;;;;;;;;;5107361;28;20083;-69
2023/12/13 12:56:43;;;;;;;70.03;55.60;;;17.70;89.20;;;;;;5106258;28;20118;-69
2023/12/13 12:59:14;;;;;;;204.55;182.85;;;17.60;85.70;;;;;;5104941;28;20454;-67
2023/12/13 13:01:42;;;;;;;105.05;93.90;;;;;;;;;;5103802;28;20039;-66
2023/12/13 13:04:13;;;;;;;59.92;53.55;;;;;;;;;;5096553;28;20081;-68
2023/12/13 13:06:41;;;;;;;48.85;43.47;;;;;;;;;;5093362;28;20054;-68
2023/12/13 13:09:07;;;;;;;39.67;35.55;;;;;;;;;;5105264;28;20055;-68
2023/12/13 13:11:34;;;;;;;37.28;32.67;;;17.90;88.10;;;;;;5109185;28;20111;-68
2023/12/13 13:14:03;;;;;;;31.75;28.35;;;18.00;88.00;;;;;;5109507;28;20082;-68
2023/12/13 13:16:31;;;;;;;29.80;25.73;;;18.40;85.10;;;;;;5093208;28;20069;-69
2023/12/13 13:18:57;;;;;;;26.88;23.95;;;;;;;;;;5095267;28;20570;-68
2023/12/13 13:21:23;;;;;;;23.70;20.77;;;18.10;84.70;;;;;;5109868;28;20085;-67
2023/12/13 13:23:49;;;;;;;21.33;19.23;;;;;;;;;;5091682;28;20432;-67
2023/12/13 13:26:15;;;;;;;21.42;19.23;;;18.10;87.80;;;;;;5093290;28;20052;-67
2023/12/13 13:28:41;;;;;;;18.52;16.35;;;18.00;84.20;;;;;;5108151;28;20043;-67
2023/12/13 13:31:07;;;;;;;19.20;14.63;;;;;;;;;;5102917;28;20071;-69
2023/12/13 13:33:34;;;;;;;162.70;119.57;;;;;;;;;;5110324;28;20036;-69
2023/12/13 13:36:00;;;;;;;64.40;51.88;;;17.90;87.90;;;;;;5108894;28;20133;-69
2023/12/13 13:38:26;;;;;;;382.77;259.85;;;;;;;;;;5093043;28;20083;-69
2023/12/13 13:40:54;;;;;;;206.85;145.32;;;17.60;84.80;;;;;;5106051;28;20454;-69
2023/12/13 13:43:22;;;;;;;72.35;50.95;;;18.00;86.50;;;;;;5091159;28;20160;-69
2023/12/13 13:45:49;;;;;;;54.40;32.45;;;;;;;;;;5108555;28;20043;-69
2023/12/13 13:48:18;;;;;;;31.73;21.58;;;;;;;;;;5104048;28;20048;-69
2023/12/13 13:50:44;;;;;;;44.47;17.95;;;;;;;;;;5105517;28;20503;-70